sensor_id;sensor_type;location;lat;lon;timestamp;P1;durP1;ratioP1;P2;durP2;ratioP2
79728;SDS011;69218;52.132;5.418;2024-03-17T00:01:37;8.60;;;4.00;;
79728;SDS011;69218;52.132;5.418;2024-03-17T00:04:03;7.65;;;3.53;;
79728;SDS011;69218;52.132;5.418;2024-03-17T00:06:29;7.78;;;3.42;;
79728;SDS011;69218;52.132;5.418;2024-03-17T00:08:55;7.43;;;3.60;;
79728;SDS011;69218;52.132;5.418;2024-03-17T00:11:21;9.60;;;4.53;;
79728;SDS011;69218;52.132;5.418;2024-03-17T00:13:47;9.48;;;3.92;;
79728;SDS011;69218;52.132;5.418;2024-03-17T00:16:13;10.73;;;3.55;;
79728;SDS011;69218;52.132;5.418;2024-03-17T00:18:39;7.57;;;3.60;;
79728;SDS011;69218;52.132;5.418;2024-03-17T00:21:06;7.38;;;3.47;;
79728;SDS011;69218;52.132;5.418;2024-03-17T00:23:31;9.40;;;3.78;;
79728;SDS011;69218;52.132;5.418;2024-03-17T00:25:57;7.55;;;3.50;;
79728;SDS011;69218;52.132;5.418;2024-03-17T00:28:22;7.28;;;3.33;;
79728;SDS011;69218;52.132;5.418;2024-03-17T00:30:50;6.65;;;3.17;;
79728;SDS011;69218;52.132;5.418;2024-03-17T00:33:15;7.07;;;3.40;;
79728;SDS011;69218;52.132;5.418;2024-03-17T00:35:41;7.20;;;3.10;;
79728;SDS011;69218;52.132;5.418;2024-03-17T00:38:06;5.90;;;3.20;;
79728;SDS011;69218;52.132;5.418;2024-03-17T00:40:38;6.93;;;3.13;;
79728;SDS011;69218;52.132;5.418;2024-03-17T00:43:06;7.40;;;3.38;;
79728;SDS011;69218;52.132;5.418;2024-03-17T00:45:32;7.35;;;3.42;;
79728;SDS011;69218;52.132;5.418;2024-03-17T00:47:57;7.30;;;3.45;;
79728;SDS011;69218;52.132;5.418;2024-03-17T00:50:23;6.93;;;3.50;;
79728;SDS011;69218;52.132;5.418;2024-03-17T00:52:48;8.88;;;3.40;;
79728;SDS011;69218;52.132;5.418;2024-03-17T00:55:14;7.40;;;3.33;;
79728;SDS011;69218;52.132;5.418;2024-03-17T00:57:40;8.90;;;3.50;;
79728;SDS011;69218;52.132;5.418;2024-03-17T01:00:06;8.15;;;3.53;;
79728;SDS011;69218;52.132;5.418;2024-03-17T01:02:35;7.72;;;3.30;;
79728;SDS011;69218;52.132;5.418;2024-03-17T01:05:01;7.68;;;3.10;;
79728;SDS011;69218;52.132;5.418;2024-03-17T01:07:26;9.00;;;3.63;;
79728;SDS011;69218;52.132;5.418;2024-03-17T01:09:52;7.32;;;2.80;;
79728;SDS011;69218;52.132;5.418;2024-03-17T01:12:17;6.63;;;3.05;;
79728;SDS011;69218;52.132;5.418;2024-03-17T01:14:43;10.93;;;3.05;;
79728;SDS011;69218;52.132;5.418;2024-03-17T01:17:09;5.38;;;2.80;;
79728;SDS011;69218;52.132;5.418;2024-03-17T01:19:34;6.22;;;3.20;;
79728;SDS011;69218;52.132;5.418;2024-03-17T01:22:00;4.43;;;2.42;;
79728;SDS011;69218;52.132;5.418;2024-03-17T01:24:26;6.43;;;2.97;;
79728;SDS011;69218;52.132;5.418;2024-03-17T01:26:59;6.10;;;2.67;;
79728;SDS011;69218;52.132;5.418;2024-03-17T01:29:25;5.20;;;2.90;;
79728;SDS011;69218;52.132;5.418;2024-03-17T01:31:51;5.43;;;3.05;;
79728;SDS011;69218;52.132;5.418;2024-03-17T01:34:18;7.05;;;2.97;;
79728;SDS011;69218;52.132;5.418;2024-03-17T01:36:44;6.53;;;3.30;;
79728;SDS011;69218;52.132;5.418;2024-03-17T01:39:10;5.75;;;2.58;;
79728;SDS011;69218;52.132;5.418;2024-03-17T01:41:36;5.05;;;2.65;;
79728;SDS011;69218;52.132;5.418;2024-03-17T01:44:02;6.88;;;2.70;;
79728;SDS011;69218;52.132;5.418;2024-03-17T01:46:28;6.90;;;2.92;;
79728;SDS011;69218;52.132;5.418;2024-03-17T01:48:54;8.27;;;3.20;;
79728;SDS011;69218;52.132;5.418;2024-03-17T01:51:20;6.53;;;2.90;;
79728;SDS011;69218;52.132;5.418;2024-03-17T01:53:47;7.05;;;3.03;;
79728;SDS011;69218;52.132;5.418;2024-03-17T01:56:13;5.50;;;2.70;;
79728;SDS011;69218;52.132;5.418;2024-03-17T01:58:43;6.60;;;3.03;;
79728;SDS011;69218;52.132;5.418;2024-03-17T02:01:10;6.57;;;3.63;;
79728;SDS011;69218;52.132;5.418;2024-03-17T02:03:40;9.23;;;3.78;;
79728;SDS011;69218;52.132;5.418;2024-03-17T02:06:07;6.28;;;3.85;;
79728;SDS011;69218;52.132;5.418;2024-03-17T02:08:50;7.40;;;4.75;;
79728;SDS011;69218;52.132;5.418;2024-03-17T02:11:24;7.70;;;3.42;;
79728;SDS011;69218;52.132;5.418;2024-03-17T02:13:54;5.82;;;3.33;;
79728;SDS011;69218;52.132;5.418;2024-03-17T02:16:20;7.18;;;3.53;;
79728;SDS011;69218;52.132;5.418;2024-03-17T02:18:47;7.32;;;3.85;;
79728;SDS011;69218;52.132;5.418;2024-03-17T02:21:12;5.60;;;3.33;;
79728;SDS011;69218;52.132;5.418;2024-03-17T02:23:41;7.60;;;3.75;;
79728;SDS011;69218;52.132;5.418;2024-03-17T02:26:09;6.22;;;3.47;;
79728;SDS011;69218;52.132;5.418;2024-03-17T02:28:42;9.98;;;4.53;;
79728;SDS011;69218;52.132;5.418;2024-03-17T02:31:09;10.23;;;3.95;;
79728;SDS011;69218;52.132;5.418;2024-03-17T02:33:36;10.77;;;4.63;;
79728;SDS011;69218;52.132;5.418;2024-03-17T02:36:05;9.73;;;4.35;;
79728;SDS011;69218;52.132;5.418;2024-03-17T02:38:35;10.30;;;4.90;;
79728;SDS011;69218;52.132;5.418;2024-03-17T02:41:20;11.75;;;5.50;;
79728;SDS011;69218;52.132;5.418;2024-03-17T02:43:46;12.32;;;5.60;;
79728;SDS011;69218;52.132;5.418;2024-03-17T02:46:13;8.70;;;5.22;;
79728;SDS011;69218;52.132;5.418;2024-03-17T02:48:40;8.77;;;4.45;;
79728;SDS011;69218;52.132;5.418;2024-03-17T02:51:16;11.18;;;4.75;;
79728;SDS011;69218;52.132;5.418;2024-03-17T02:53:45;8.77;;;5.28;;
79728;SDS011;69218;52.132;5.418;2024-03-17T02:56:11;9.55;;;5.13;;
79728;SDS011;69218;52.132;5.418;2024-03-17T02:58:38;12.18;;;5.30;;
79728;SDS011;69218;52.132;5.418;2024-03-17T03:01:05;9.65;;;5.18;;
79728;SDS011;69218;52.132;5.418;2024-03-17T03:03:32;12.35;;;5.38;;
79728;SDS011;69218;52.132;5.418;2024-03-17T03:05:58;10.30;;;4.80;;
79728;SDS011;69218;52.132;5.418;2024-03-17T03:08:26;12.85;;;5.28;;
79728;SDS011;69218;52.132;5.418;2024-03-17T03:10:52;9.73;;;5.32;;
79728;SDS011;69218;52.132;5.418;2024-03-17T03:13:17;11.63;;;6.03;;
79728;SDS011;69218;52.132;5.418;2024-03-17T03:15:46;12.40;;;5.78;;
79728;SDS011;69218;52.132;5.418;2024-03-17T03:18:13;11.00;;;5.32;;
79728;SDS011;69218;52.132;5.418;2024-03-17T03:20:39;11.27;;;6.15;;
79728;SDS011;69218;52.132;5.418;2024-03-17T03:23:04;11.98;;;5.82;;
79728;SDS011;69218;52.132;5.418;2024-03-17T03:25:30;13.57;;;5.82;;
79728;SDS011;69218;52.132;5.418;2024-03-17T03:27:55;7.20;;;4.68;;
79728;SDS011;69218;52.132;5.418;2024-03-17T03:30:23;8.98;;;5.30;;
79728;SDS011;69218;52.132;5.418;2024-03-17T03:32:49;9.27;;;4.60;;
79728;SDS011;69218;52.132;5.418;2024-03-17T03:35:15;8.98;;;4.72;;
79728;SDS011;69218;52.132;5.418;2024-03-17T03:37:41;12.85;;;5.88;;
79728;SDS011;69218;52.132;5.418;2024-03-17T03:40:07;13.93;;;5.55;;
79728;SDS011;69218;52.132;5.418;2024-03-17T03:42:44;11.20;;;5.00;;
79728;SDS011;69218;52.132;5.418;2024-03-17T03:45:10;8.60;;;4.93;;
79728;SDS011;69218;52.132;5.418;2024-03-17T03:47:39;11.80;;;5.78;;
79728;SDS011;69218;52.132;5.418;2024-03-17T03:50:06;13.20;;;6.13;;
79728;SDS011;69218;52.132;5.418;2024-03-17T03:52:34;9.05;;;5.03;;
79728;SDS011;69218;52.132;5.418;2024-03-17T03:55:02;9.23;;;5.25;;
79728;SDS011;69218;52.132;5.418;2024-03-17T03:57:29;9.63;;;4.72;;
79728;SDS011;69218;52.132;5.418;2024-03-17T03:59:57;12.45;;;5.15;;
79728;SDS011;69218;52.132;5.418;2024-03-17T04:02:23;10.68;;;5.45;;
79728;SDS011;69218;52.132;5.418;2024-03-17T04:04:50;7.72;;;4.63;;
79728;SDS011;69218;52.132;5.418;2024-03-17T04:07:16;9.23;;;4.93;;
79728;SDS011;69218;52.132;5.418;2024-03-17T04:09:42;7.93;;;4.60;;
79728;SDS011;69218;52.132;5.418;2024-03-17T04:12:07;13.52;;;5.40;;
79728;SDS011;69218;52.132;5.418;2024-03-17T04:14:33;9.90;;;5.03;;
79728;SDS011;69218;52.132;5.418;2024-03-17T04:16:58;11.02;;;4.47;;
79728;SDS011;69218;52.132;5.418;2024-03-17T04:19:24;11.68;;;5.45;;
79728;SDS011;69218;52.132;5.418;2024-03-17T04:21:51;8.95;;;5.60;;
79728;SDS011;69218;52.132;5.418;2024-03-17T04:24:17;10.80;;;5.00;;
79728;SDS011;69218;52.132;5.418;2024-03-17T04:26:43;9.13;;;4.80;;
79728;SDS011;69218;52.132;5.418;2024-03-17T04:29:09;11.30;;;5.78;;
79728;SDS011;69218;52.132;5.418;2024-03-17T04:31:34;10.40;;;4.78;;
79728;SDS011;69218;52.132;5.418;2024-03-17T04:34:00;10.30;;;4.80;;
79728;SDS011;69218;52.132;5.418;2024-03-17T04:36:26;11.45;;;4.65;;
79728;SDS011;69218;52.132;5.418;2024-03-17T04:38:52;9.95;;;4.88;;
79728;SDS011;69218;52.132;5.418;2024-03-17T04:41:19;10.10;;;4.53;;
79728;SDS011;69218;52.132;5.418;2024-03-17T04:43:45;10.90;;;4.97;;
79728;SDS011;69218;52.132;5.418;2024-03-17T04:46:11;9.10;;;4.68;;
79728;SDS011;69218;52.132;5.418;2024-03-17T04:48:37;13.30;;;5.32;;
79728;SDS011;69218;52.132;5.418;2024-03-17T04:51:03;11.10;;;5.18;;
79728;SDS011;69218;52.132;5.418;2024-03-17T04:53:29;13.77;;;5.97;;
79728;SDS011;69218;52.132;5.418;2024-03-17T04:56:04;9.25;;;4.95;;
79728;SDS011;69218;52.132;5.418;2024-03-17T04:58:31;10.75;;;4.70;;
79728;SDS011;69218;52.132;5.418;2024-03-17T05:00:57;9.30;;;4.40;;
79728;SDS011;69218;52.132;5.418;2024-03-17T05:03:23;10.88;;;4.68;;
79728;SDS011;69218;52.132;5.418;2024-03-17T05:05:48;9.10;;;4.65;;
79728;SDS011;69218;52.132;5.418;2024-03-17T05:08:26;8.65;;;4.57;;
79728;SDS011;69218;52.132;5.418;2024-03-17T05:10:55;9.75;;;5.45;;
79728;SDS011;69218;52.132;5.418;2024-03-17T05:13:28;13.38;;;5.70;;
79728;SDS011;69218;52.132;5.418;2024-03-17T05:15:54;12.38;;;6.03;;
79728;SDS011;69218;52.132;5.418;2024-03-17T05:18:20;15.07;;;5.65;;
79728;SDS011;69218;52.132;5.418;2024-03-17T05:20:47;10.77;;;5.43;;
79728;SDS011;69218;52.132;5.418;2024-03-17T05:23:21;9.50;;;5.30;;
79728;SDS011;69218;52.132;5.418;2024-03-17T05:25:53;13.98;;;5.30;;
79728;SDS011;69218;52.132;5.418;2024-03-17T05:28:20;10.93;;;5.28;;
79728;SDS011;69218;52.132;5.418;2024-03-17T05:30:45;12.80;;;5.00;;
79728;SDS011;69218;52.132;5.418;2024-03-17T05:33:11;10.93;;;5.55;;
79728;SDS011;69218;52.132;5.418;2024-03-17T05:35:36;10.35;;;5.57;;
79728;SDS011;69218;52.132;5.418;2024-03-17T05:38:03;11.02;;;5.18;;
79728;SDS011;69218;52.132;5.418;2024-03-17T05:40:28;11.18;;;5.50;;
79728;SDS011;69218;52.132;5.418;2024-03-17T05:42:56;11.18;;;5.95;;
79728;SDS011;69218;52.132;5.418;2024-03-17T05:45:21;11.27;;;5.85;;
79728;SDS011;69218;52.132;5.418;2024-03-17T05:47:49;11.07;;;5.50;;
79728;SDS011;69218;52.132;5.418;2024-03-17T05:50:15;9.10;;;5.63;;
79728;SDS011;69218;52.132;5.418;2024-03-17T05:52:41;10.65;;;5.50;;
79728;SDS011;69218;52.132;5.418;2024-03-17T05:55:06;12.57;;;6.05;;
79728;SDS011;69218;52.132;5.418;2024-03-17T05:57:32;14.77;;;6.05;;
79728;SDS011;69218;52.132;5.418;2024-03-17T05:59:58;10.00;;;5.22;;
79728;SDS011;69218;52.132;5.418;2024-03-17T06:02:23;12.27;;;5.28;;
79728;SDS011;69218;52.132;5.418;2024-03-17T06:04:49;9.77;;;5.57;;
79728;SDS011;69218;52.132;5.418;2024-03-17T06:07:15;10.65;;;5.50;;
79728;SDS011;69218;52.132;5.418;2024-03-17T06:09:40;12.32;;;5.97;;
79728;SDS011;69218;52.132;5.418;2024-03-17T06:12:05;11.27;;;5.63;;
79728;SDS011;69218;52.132;5.418;2024-03-17T06:14:31;11.95;;;5.57;;
79728;SDS011;69218;52.132;5.418;2024-03-17T06:16:59;11.20;;;5.95;;
79728;SDS011;69218;52.132;5.418;2024-03-17T06:19:25;11.55;;;5.88;;
79728;SDS011;69218;52.132;5.418;2024-03-17T06:21:50;12.27;;;5.95;;
79728;SDS011;69218;52.132;5.418;2024-03-17T06:24:16;9.48;;;5.32;;
79728;SDS011;69218;52.132;5.418;2024-03-17T06:26:42;11.57;;;6.05;;
79728;SDS011;69218;52.132;5.418;2024-03-17T06:29:07;13.07;;;5.88;;
79728;SDS011;69218;52.132;5.418;2024-03-17T06:31:33;12.13;;;5.35;;
79728;SDS011;69218;52.132;5.418;2024-03-17T06:33:59;11.43;;;5.60;;
79728;SDS011;69218;52.132;5.418;2024-03-17T06:36:24;10.60;;;5.45;;
79728;SDS011;69218;52.132;5.418;2024-03-17T06:38:50;11.02;;;5.93;;
79728;SDS011;69218;52.132;5.418;2024-03-17T06:41:16;10.60;;;6.22;;
79728;SDS011;69218;52.132;5.418;2024-03-17T06:43:42;10.77;;;5.55;;
79728;SDS011;69218;52.132;5.418;2024-03-17T06:46:08;9.75;;;5.47;;
79728;SDS011;69218;52.132;5.418;2024-03-17T06:48:34;11.40;;;6.05;;
79728;SDS011;69218;52.132;5.418;2024-03-17T06:51:00;11.48;;;5.82;;
79728;SDS011;69218;52.132;5.418;2024-03-17T06:53:26;11.55;;;5.45;;
79728;SDS011;69218;52.132;5.418;2024-03-17T06:55:58;9.75;;;5.53;;
79728;SDS011;69218;52.132;5.418;2024-03-17T06:58:26;13.40;;;5.97;;
79728;SDS011;69218;52.132;5.418;2024-03-17T07:00:55;11.88;;;6.18;;
79728;SDS011;69218;52.132;5.418;2024-03-17T07:03:23;12.38;;;5.63;;
79728;SDS011;69218;52.132;5.418;2024-03-17T07:05:56;11.32;;;6.10;;
79728;SDS011;69218;52.132;5.418;2024-03-17T07:08:24;11.73;;;5.60;;
79728;SDS011;69218;52.132;5.418;2024-03-17T07:10:57;9.98;;;5.15;;
79728;SDS011;69218;52.132;5.418;2024-03-17T07:13:29;11.57;;;6.65;;
79728;SDS011;69218;52.132;5.418;2024-03-17T07:16:01;14.18;;;6.25;;
79728;SDS011;69218;52.132;5.418;2024-03-17T07:18:29;11.93;;;5.75;;
79728;SDS011;69218;52.132;5.418;2024-03-17T07:21:04;12.27;;;5.97;;
79728;SDS011;69218;52.132;5.418;2024-03-17T07:25:56;9.95;;;5.38;;
79728;SDS011;69218;52.132;5.418;2024-03-17T07:28:24;11.80;;;5.45;;
79728;SDS011;69218;52.132;5.418;2024-03-17T07:30:54;10.38;;;5.40;;
79728;SDS011;69218;52.132;5.418;2024-03-17T07:33:21;9.52;;;5.32;;
79728;SDS011;69218;52.132;5.418;2024-03-17T07:35:48;9.90;;;5.35;;
79728;SDS011;69218;52.132;5.418;2024-03-17T07:38:22;11.23;;;6.10;;
79728;SDS011;69218;52.132;5.418;2024-03-17T07:41:07;11.15;;;5.53;;
79728;SDS011;69218;52.132;5.418;2024-03-17T07:43:37;9.93;;;5.35;;
79728;SDS011;69218;52.132;5.418;2024-03-17T07:46:07;10.75;;;5.60;;
79728;SDS011;69218;52.132;5.418;2024-03-17T07:48:38;11.32;;;5.50;;
79728;SDS011;69218;52.132;5.418;2024-03-17T07:51:11;9.55;;;5.28;;
79728;SDS011;69218;52.132;5.418;2024-03-17T07:53:41;8.90;;;4.75;;
79728;SDS011;69218;52.132;5.418;2024-03-17T07:56:08;10.52;;;5.05;;
79728;SDS011;69218;52.132;5.418;2024-03-17T07:58:35;10.60;;;5.38;;
79728;SDS011;69218;52.132;5.418;2024-03-17T08:01:04;7.63;;;4.60;;
79728;SDS011;69218;52.132;5.418;2024-03-17T08:03:35;8.88;;;4.72;;
79728;SDS011;69218;52.132;5.418;2024-03-17T08:06:03;11.25;;;4.95;;
79728;SDS011;69218;52.132;5.418;2024-03-17T08:08:30;10.23;;;4.80;;
79728;SDS011;69218;52.132;5.418;2024-03-17T08:10:56;10.98;;;4.75;;
79728;SDS011;69218;52.132;5.418;2024-03-17T08:13:22;10.38;;;5.05;;
79728;SDS011;69218;52.132;5.418;2024-03-17T08:15:55;9.68;;;5.03;;
79728;SDS011;69218;52.132;5.418;2024-03-17T08:18:23;10.25;;;5.03;;
79728;SDS011;69218;52.132;5.418;2024-03-17T08:20:49;10.15;;;5.10;;
79728;SDS011;69218;52.132;5.418;2024-03-17T08:23:14;10.65;;;4.80;;
79728;SDS011;69218;52.132;5.418;2024-03-17T08:25:40;9.90;;;5.10;;
79728;SDS011;69218;52.132;5.418;2024-03-17T08:28:06;11.75;;;5.38;;
79728;SDS011;69218;52.132;5.418;2024-03-17T08:30:34;10.38;;;5.10;;
79728;SDS011;69218;52.132;5.418;2024-03-17T08:33:00;10.70;;;4.68;;
79728;SDS011;69218;52.132;5.418;2024-03-17T08:35:26;9.80;;;4.72;;
79728;SDS011;69218;52.132;5.418;2024-03-17T08:37:52;11.38;;;5.32;;
79728;SDS011;69218;52.132;5.418;2024-03-17T08:40:22;11.63;;;5.47;;
79728;SDS011;69218;52.132;5.418;2024-03-17T08:42:48;9.55;;;4.88;;
79728;SDS011;69218;52.132;5.418;2024-03-17T08:45:14;9.80;;;5.10;;
79728;SDS011;69218;52.132;5.418;2024-03-17T08:47:40;9.77;;;5.07;;
79728;SDS011;69218;52.132;5.418;2024-03-17T08:50:05;9.85;;;5.30;;
79728;SDS011;69218;52.132;5.418;2024-03-17T08:52:36;8.38;;;5.05;;
79728;SDS011;69218;52.132;5.418;2024-03-17T08:55:02;8.80;;;4.90;;
79728;SDS011;69218;52.132;5.418;2024-03-17T08:57:35;12.63;;;5.13;;
79728;SDS011;69218;52.132;5.418;2024-03-17T09:00:00;10.63;;;4.95;;
79728;SDS011;69218;52.132;5.418;2024-03-17T09:02:26;8.75;;;4.60;;
79728;SDS011;69218;52.132;5.418;2024-03-17T09:04:51;9.55;;;4.93;;
79728;SDS011;69218;52.132;5.418;2024-03-17T09:07:17;9.98;;;4.78;;
79728;SDS011;69218;52.132;5.418;2024-03-17T09:09:43;9.80;;;4.72;;
79728;SDS011;69218;52.132;5.418;2024-03-17T09:12:08;9.88;;;5.25;;
79728;SDS011;69218;52.132;5.418;2024-03-17T09:14:34;9.43;;;4.90;;
79728;SDS011;69218;52.132;5.418;2024-03-17T09:17:00;10.38;;;4.70;;
79728;SDS011;69218;52.132;5.418;2024-03-17T09:19:26;10.00;;;4.78;;
79728;SDS011;69218;52.132;5.418;2024-03-17T09:21:51;8.55;;;5.05;;
79728;SDS011;69218;52.132;5.418;2024-03-17T09:24:17;9.30;;;5.03;;
79728;SDS011;69218;52.132;5.418;2024-03-17T09:26:42;9.35;;;4.85;;
79728;SDS011;69218;52.132;5.418;2024-03-17T09:29:08;9.13;;;5.63;;
79728;SDS011;69218;52.132;5.418;2024-03-17T09:31:33;11.10;;;4.68;;
79728;SDS011;69218;52.132;5.418;2024-03-17T09:34:03;8.32;;;5.20;;
79728;SDS011;69218;52.132;5.418;2024-03-17T09:36:29;9.20;;;4.43;;
79728;SDS011;69218;52.132;5.418;2024-03-17T09:38:56;9.65;;;5.20;;
79728;SDS011;69218;52.132;5.418;2024-03-17T09:41:22;7.85;;;4.32;;
79728;SDS011;69218;52.132;5.418;2024-03-17T09:43:53;8.45;;;4.60;;
79728;SDS011;69218;52.132;5.418;2024-03-17T09:46:19;9.50;;;4.85;;
79728;SDS011;69218;52.132;5.418;2024-03-17T09:48:45;9.40;;;4.93;;
79728;SDS011;69218;52.132;5.418;2024-03-17T09:51:18;11.80;;;4.82;;
79728;SDS011;69218;52.132;5.418;2024-03-17T09:53:46;8.05;;;4.40;;
79728;SDS011;69218;52.132;5.418;2024-03-17T09:56:13;8.93;;;4.60;;
79728;SDS011;69218;52.132;5.418;2024-03-17T09:58:47;8.65;;;4.45;;
79728;SDS011;69218;52.132;5.418;2024-03-17T10:01:16;8.18;;;4.53;;
79728;SDS011;69218;52.132;5.418;2024-03-17T10:03:46;9.05;;;4.75;;
79728;SDS011;69218;52.132;5.418;2024-03-17T10:06:20;9.52;;;4.40;;
79728;SDS011;69218;52.132;5.418;2024-03-17T10:08:50;9.45;;;3.80;;
79728;SDS011;69218;52.132;5.418;2024-03-17T10:11:18;9.75;;;4.68;;
79728;SDS011;69218;52.132;5.418;2024-03-17T10:14:01;8.23;;;4.30;;
79728;SDS011;69218;52.132;5.418;2024-03-17T10:16:34;10.98;;;4.55;;
79728;SDS011;69218;52.132;5.418;2024-03-17T10:22:00;8.98;;;4.85;;
79728;SDS011;69218;52.132;5.418;2024-03-17T10:24:26;7.38;;;4.03;;
79728;SDS011;69218;52.132;5.418;2024-03-17T10:26:57;7.53;;;4.30;;
79728;SDS011;69218;52.132;5.418;2024-03-17T10:29:27;8.07;;;4.45;;
79728;SDS011;69218;52.132;5.418;2024-03-17T10:32:03;7.38;;;4.10;;
79728;SDS011;69218;52.132;5.418;2024-03-17T10:34:30;9.15;;;4.78;;
79728;SDS011;69218;52.132;5.418;2024-03-17T10:39:38;9.57;;;4.80;;
79728;SDS011;69218;52.132;5.418;2024-03-17T10:42:06;9.40;;;4.70;;
79728;SDS011;69218;52.132;5.418;2024-03-17T10:44:34;9.75;;;5.07;;
79728;SDS011;69218;52.132;5.418;2024-03-17T10:47:01;9.55;;;4.05;;
79728;SDS011;69218;52.132;5.418;2024-03-17T10:49:29;7.43;;;4.22;;
79728;SDS011;69218;52.132;5.418;2024-03-17T10:52:02;8.02;;;4.13;;
79728;SDS011;69218;52.132;5.418;2024-03-17T10:54:30;9.02;;;4.88;;
79728;SDS011;69218;52.132;5.418;2024-03-17T10:57:07;9.63;;;4.28;;
79728;SDS011;69218;52.132;5.418;2024-03-17T10:59:40;8.90;;;4.13;;
79728;SDS011;69218;52.132;5.418;2024-03-17T11:02:21;24.55;;;6.20;;
79728;SDS011;69218;52.132;5.418;2024-03-17T11:04:54;7.45;;;3.65;;
79728;SDS011;69218;52.132;5.418;2024-03-17T11:07:22;7.20;;;4.18;;
79728;SDS011;69218;52.132;5.418;2024-03-17T11:09:49;8.73;;;4.63;;
79728;SDS011;69218;52.132;5.418;2024-03-17T11:17:50;7.85;;;4.50;;
79728;SDS011;69218;52.132;5.418;2024-03-17T11:22:50;8.07;;;4.25;;
79728;SDS011;69218;52.132;5.418;2024-03-17T11:41:38;7.22;;;4.15;;
79728;SDS011;69218;52.132;5.418;2024-03-17T11:46:50;8.63;;;4.18;;
79728;SDS011;69218;52.132;5.418;2024-03-17T11:49:43;9.32;;;3.90;;
79728;SDS011;69218;52.132;5.418;2024-03-17T11:52:14;7.65;;;4.05;;
79728;SDS011;69218;52.132;5.418;2024-03-17T11:54:44;9.05;;;4.10;;
79728;SDS011;69218;52.132;5.418;2024-03-17T11:57:11;7.75;;;4.22;;
79728;SDS011;69218;52.132;5.418;2024-03-17T11:59:38;9.55;;;4.28;;
79728;SDS011;69218;52.132;5.418;2024-03-17T12:02:09;8.15;;;4.43;;
79728;SDS011;69218;52.132;5.418;2024-03-17T12:04:43;8.63;;;4.20;;
79728;SDS011;69218;52.132;5.418;2024-03-17T12:07:12;7.90;;;4.68;;
79728;SDS011;69218;52.132;5.418;2024-03-17T12:09:43;9.57;;;4.65;;
79728;SDS011;69218;52.132;5.418;2024-03-17T12:12:24;7.28;;;4.15;;
79728;SDS011;69218;52.132;5.418;2024-03-17T12:15:19;9.57;;;3.92;;
79728;SDS011;69218;52.132;5.418;2024-03-17T12:17:51;8.60;;;4.30;;
79728;SDS011;69218;52.132;5.418;2024-03-17T12:20:20;8.40;;;4.00;;
79728;SDS011;69218;52.132;5.418;2024-03-17T12:25:19;7.00;;;4.20;;
79728;SDS011;69218;52.132;5.418;2024-03-17T12:27:46;9.68;;;4.40;;
79728;SDS011;69218;52.132;5.418;2024-03-17T12:30:12;6.60;;;3.70;;
79728;SDS011;69218;52.132;5.418;2024-03-17T12:32:38;8.93;;;4.22;;
79728;SDS011;69218;52.132;5.418;2024-03-17T12:35:09;9.00;;;4.13;;
79728;SDS011;69218;52.132;5.418;2024-03-17T12:37:38;9.52;;;4.57;;
79728;SDS011;69218;52.132;5.418;2024-03-17T12:40:05;7.32;;;3.75;;
79728;SDS011;69218;52.132;5.418;2024-03-17T12:42:32;9.02;;;3.92;;
79728;SDS011;69218;52.132;5.418;2024-03-17T12:44:58;8.15;;;4.22;;
79728;SDS011;69218;52.132;5.418;2024-03-17T12:47:27;9.18;;;4.10;;
79728;SDS011;69218;52.132;5.418;2024-03-17T12:49:54;8.23;;;4.10;;
79728;SDS011;69218;52.132;5.418;2024-03-17T12:52:24;8.63;;;4.40;;
79728;SDS011;69218;52.132;5.418;2024-03-17T12:54:59;7.30;;;4.10;;
79728;SDS011;69218;52.132;5.418;2024-03-17T12:57:47;9.63;;;4.28;;
79728;SDS011;69218;52.132;5.418;2024-03-17T13:00:32;7.80;;;4.20;;
79728;SDS011;69218;52.132;5.418;2024-03-17T13:03:02;8.45;;;3.97;;
79728;SDS011;69218;52.132;5.418;2024-03-17T13:05:33;8.55;;;3.92;;
79728;SDS011;69218;52.132;5.418;2024-03-17T13:08:02;7.40;;;3.63;;
79728;SDS011;69218;52.132;5.418;2024-03-17T13:10:28;8.98;;;4.10;;
79728;SDS011;69218;52.132;5.418;2024-03-17T13:13:00;8.95;;;4.22;;
79728;SDS011;69218;52.132;5.418;2024-03-17T13:15:27;7.68;;;3.95;;
79728;SDS011;69218;52.132;5.418;2024-03-17T13:17:55;8.43;;;4.38;;
79728;SDS011;69218;52.132;5.418;2024-03-17T13:20:21;8.45;;;4.55;;
79728;SDS011;69218;52.132;5.418;2024-03-17T13:22:47;7.22;;;4.40;;
79728;SDS011;69218;52.132;5.418;2024-03-17T13:25:16;6.75;;;4.05;;
79728;SDS011;69218;52.132;5.418;2024-03-17T13:27:49;8.30;;;4.65;;
79728;SDS011;69218;52.132;5.418;2024-03-17T13:30:15;8.60;;;4.43;;
79728;SDS011;69218;52.132;5.418;2024-03-17T13:32:42;8.13;;;4.57;;
79728;SDS011;69218;52.132;5.418;2024-03-17T13:35:17;7.78;;;4.00;;
79728;SDS011;69218;52.132;5.418;2024-03-17T13:37:47;7.72;;;4.18;;
79728;SDS011;69218;52.132;5.418;2024-03-17T13:40:14;8.07;;;4.20;;
79728;SDS011;69218;52.132;5.418;2024-03-17T13:42:47;7.07;;;4.05;;
79728;SDS011;69218;52.132;5.418;2024-03-17T13:45:15;9.88;;;4.45;;
79728;SDS011;69218;52.132;5.418;2024-03-17T13:47:42;8.27;;;4.68;;
79728;SDS011;69218;52.132;5.418;2024-03-17T13:50:13;7.22;;;4.10;;
79728;SDS011;69218;52.132;5.418;2024-03-17T13:52:44;7.50;;;4.28;;
79728;SDS011;69218;52.132;5.418;2024-03-17T13:55:14;7.32;;;4.25;;
79728;SDS011;69218;52.132;5.418;2024-03-17T13:57:47;8.75;;;4.40;;
79728;SDS011;69218;52.132;5.418;2024-03-17T14:00:15;7.72;;;4.28;;
79728;SDS011;69218;52.132;5.418;2024-03-17T14:02:42;6.95;;;4.30;;
79728;SDS011;69218;52.132;5.418;2024-03-17T14:05:11;8.07;;;4.45;;
79728;SDS011;69218;52.132;5.418;2024-03-17T14:07:38;7.40;;;3.97;;
79728;SDS011;69218;52.132;5.418;2024-03-17T14:10:05;7.70;;;4.63;;
79728;SDS011;69218;52.132;5.418;2024-03-17T14:12:33;7.47;;;4.10;;
79728;SDS011;69218;52.132;5.418;2024-03-17T14:14:59;7.57;;;4.30;;
79728;SDS011;69218;52.132;5.418;2024-03-17T14:17:24;7.95;;;3.95;;
79728;SDS011;69218;52.132;5.418;2024-03-17T14:19:50;9.70;;;4.18;;
79728;SDS011;69218;52.132;5.418;2024-03-17T14:22:15;8.05;;;4.05;;
79728;SDS011;69218;52.132;5.418;2024-03-17T14:24:41;8.38;;;4.35;;
79728;SDS011;69218;52.132;5.418;2024-03-17T14:27:07;13.98;;;5.07;;
79728;SDS011;69218;52.132;5.418;2024-03-17T14:29:34;8.20;;;4.57;;
79728;SDS011;69218;52.132;5.418;2024-03-17T14:31:59;9.52;;;4.32;;
79728;SDS011;69218;52.132;5.418;2024-03-17T14:34:25;8.60;;;4.57;;
79728;SDS011;69218;52.132;5.418;2024-03-17T14:36:52;9.00;;;4.05;;
79728;SDS011;69218;52.132;5.418;2024-03-17T14:39:17;9.73;;;4.80;;
79728;SDS011;69218;52.132;5.418;2024-03-17T14:41:43;8.38;;;4.43;;
79728;SDS011;69218;52.132;5.418;2024-03-17T14:44:08;11.27;;;5.00;;
79728;SDS011;69218;52.132;5.418;2024-03-17T14:46:34;11.20;;;4.78;;
79728;SDS011;69218;52.132;5.418;2024-03-17T14:49:00;10.32;;;4.57;;
79728;SDS011;69218;52.132;5.418;2024-03-17T14:51:26;8.95;;;4.60;;
79728;SDS011;69218;52.132;5.418;2024-03-17T14:53:52;6.30;;;3.83;;
79728;SDS011;69218;52.132;5.418;2024-03-17T14:56:18;7.78;;;4.32;;
79728;SDS011;69218;52.132;5.418;2024-03-17T14:58:44;7.30;;;3.90;;
79728;SDS011;69218;52.132;5.418;2024-03-17T15:01:11;6.28;;;3.72;;
79728;SDS011;69218;52.132;5.418;2024-03-17T15:03:37;8.00;;;4.00;;
79728;SDS011;69218;52.132;5.418;2024-03-17T15:06:08;8.93;;;4.35;;
79728;SDS011;69218;52.132;5.418;2024-03-17T15:08:43;7.72;;;3.70;;
79728;SDS011;69218;52.132;5.418;2024-03-17T15:11:10;6.60;;;4.00;;
79728;SDS011;69218;52.132;5.418;2024-03-17T15:13:35;7.43;;;3.65;;
79728;SDS011;69218;52.132;5.418;2024-03-17T15:16:02;6.60;;;3.67;;
79728;SDS011;69218;52.132;5.418;2024-03-17T15:18:31;9.57;;;4.32;;
79728;SDS011;69218;52.132;5.418;2024-03-17T15:21:01;7.45;;;4.07;;
79728;SDS011;69218;52.132;5.418;2024-03-17T15:23:27;7.03;;;4.00;;
79728;SDS011;69218;52.132;5.418;2024-03-17T15:26:02;6.63;;;3.75;;